Terminal Aerodrome Forecast
Issued by NWS

Home | Current Version | Previous Version | Text Only | Print | Product List | Glossary On
Versions: 1 2 3 4 5 6 7 8 9 10 11 12 13
000
FTUS44 KEPZ 171700 RRA
TAFDMN
TAF
KDMN 171733Z 1718/1818 08007KT P6SM VCSH FEW015 BKN070 OVC090
     FM171900 09009KT P6SM VCSH SCT025 BKN050
     FM180200 06011KT 5SM -SHRA SCT015 BKN025
     FM180600 11010KT 4SM -SHRA BKN015 OVC025
     FM181700 16008KT 6SM -SHRA SCT015 BKN025 OVC040=

USA.gov is the U.S. government's official web portal to all federal, state and local government web resources and services.